Wilson Clyde — 8PRV — position and weather

sailwx.info

Track history (hours):
 
Tides and Currents Weather Stations Pressure Air Temp Water Temp Dewpoint Dewpoint Depression Visibility Wind Speed Wind Dir Waves Ship Positions

Wilson Clyde

Last reported at 2017-Aug-20 17:50 UTC. Time now 2017-Aug-20 19:17 UTC.
Position N 49°46' W 003°28'.

Length 100 m; draft 5.9 m.

Type: Cargo ship. MMSI: 314187000.

Date/timePositionNaut miles runAvg speedWind from/ knotsBaromVisibWave heightAir tempDewpointWater temp
2017-Aug-20 17:50N 49°46' W 003°28'3 8.3
2017-Aug-20 17:30N 49°47' W 003°24'4 8.4
2017-Aug-20 17:00N 49°49' W 003°19'4 8.7
2017-Aug-20 16:30N 49°51' W 003°13'5 9.1
2017-Aug-20 15:58N 49°54' W 003°06'5 9.8
2017-Aug-20 15:30N 49°56' W 003°00'510.4
2017-Aug-20 15:00N 49°58' W 002°53'3513.0
2017-Aug-20 12:16N 50°08' W 001°59'414.2
2017-Aug-20 12:01N 50°09' W 001°54'713.8
2017-Aug-20 11:30N 50°11' W 001°44'613.0
2017-Aug-20 11:00N 50°13' W 001°34'812.1
2017-Aug-20 10:19N 50°14' W 001°21'46 9.0
2017-Aug-20 05:12N 50°27' W 000°12'2 9.8
2017-Aug-20 05:00N 50°28' W 000°09'510.2
2017-Aug-20 04:30N 50°29' W 000°01'510.9
2017-Aug-20 04:00N 50°31' E 000°07'611.2
2017-Aug-20 03:30N 50°32' E 000°15'711.6
2017-Aug-20 02:52N 50°34' E 000°26'411.5
2017-Aug-20 02:30N 50°36' E 000°32'611.4
2017-Aug-20 02:00N 50°40' E 000°39'611.0
2017-Aug-20 01:30N 50°43' E 000°46'510.5
2017-Aug-20 01:00N 50°46' E 000°53'16 9.5
2017-Aug-19 23:20N 50°56' E 001°12'3 8.6
2017-Aug-19 23:00N 50°58' E 001°16'4 7.9
2017-Aug-19 22:28N 51°01' E 001°21'4 7.4
2017-Aug-19 22:00N 51°03' E 001°25'4 7.3
2017-Aug-19 21:29N 51°05' E 001°29'4 7.6
2017-Aug-19 21:00N 51°08' E 001°34'4 8.2
2017-Aug-19 20:30N 51°10' E 001°39'5 9.4
2017-Aug-19 20:00N 51°13' E 001°45'510.3
2017-Aug-19 19:30N 51°18' E 001°49'611.5
2017-Aug-19 19:00N 51°23' E 001°54'612.1
2017-Aug-19 18:30N 51°28' E 001°59'612.3
2017-Aug-19 17:59N 51°32' E 002°06'1012.0
2017-Aug-19 17:07N 51°40' E 002°17'104 9.3
2017-Aug-19 05:56N 53°01' E 004°05'4 9.8
2017-Aug-19 05:29N 53°04' E 004°11'5 9.4
2017-Aug-19 04:59N 53°07' E 004°16'4 9.3
2017-Aug-19 04:30N 53°10' E 004°22'33 8.1
2017-Aug-19 00:25N 53°33' E 005°01'4 9.5
2017-Aug-19 00:00N 53°35' E 005°07'11510.1
2017-Aug-18 12:35N 53°60' E 008°18'212.8
2017-Aug-18 12:27N 53°60' E 008°21'613.4
2017-Aug-18 11:59N 53°58' E 008°31'613.2
2017-Aug-18 11:30N 53°55' E 008°40'612.5
2017-Aug-18 11:00N 53°51' E 008°47'611.8
2017-Aug-18 10:30N 53°51' E 008°57'510.7
2017-Aug-18 10:00N 53°53' E 009°06'2 3.9
2017-Aug-18 09:30N 53°54' E 009°09'1 1.4
2017-Aug-18 09:00N 53°54' E 009°10'4 7.2
2017-Aug-18 08:30N 53°57' E 009°14'4 7.9
2017-Aug-18 08:00N 54°00' E 009°18'4 8.3
2017-Aug-18 07:30N 54°04' E 009°19'53 4.2
2017-Aug-17 18:52N 54°34' E 010°34'410.6
2017-Aug-17 18:30N 54°35' E 010°41'510.3
2017-Aug-17 18:00N 54°36' E 010°49'510.7
2017-Aug-17 17:30N 54°36' E 010°59'611.4
2017-Aug-17 17:00N 54°36' E 011°08'611.8
2017-Aug-17 16:30N 54°34' E 011°18'611.8
2017-Aug-17 16:00N 54°32' E 011°27'611.9
2017-Aug-17 15:30N 54°29' E 011°36'711.7
2017-Aug-17 14:57N 54°27' E 011°47'511.5
2017-Aug-17 14:30N 54°27' E 011°56'811.3
2017-Aug-17 13:47N 54°28' E 012°09'311.0
2017-Aug-17 13:30N 54°31' E 012°11'611.4
2017-Aug-17 13:00N 54°36' E 012°14'611.5
2017-Aug-17 12:30N 54°39' E 012°22'2311.5
2017-Aug-17 10:28N 54°51' E 012°58'511.5
2017-Aug-17 10:00N 54°52' E 013°06'611.5
2017-Aug-17 09:28N 54°54' E 013°17'511.8
2017-Aug-17 09:00N 54°55' E 013°26'611.6
2017-Aug-17 08:30N 54°55' E 013°36'611.3
2017-Aug-17 08:00N 54°55' E 013°46'611.1
2017-Aug-17 07:30N 54°55' E 013°56'611.3
2017-Aug-17 07:00N 54°55' E 014°05'611.5
2017-Aug-17 06:30N 54°55' E 014°15'611.4
2017-Aug-17 06:00N 54°56' E 014°25'611.3
2017-Aug-17 05:30N 54°56' E 014°35'611.3
2017-Aug-17 05:00N 54°56' E 014°45'611.3
2017-Aug-17 04:30N 54°56' E 014°55'611.3
2017-Aug-17 04:00N 54°56' E 015°05'611.3
2017-Aug-17 03:30N 54°57' E 015°14'611.6
2017-Aug-17 03:00N 54°59' E 015°24'611.7
2017-Aug-17 02:31N 55°00' E 015°34'611.6
2017-Aug-17 02:00N 55°01' E 015°44'711.7
2017-Aug-17 01:27N 55°03' E 015°55'511.6
2017-Aug-17 01:00N 55°04' E 016°03'611.5
2017-Aug-17 00:30N 55°05' E 016°13'611.4
2017-Aug-16 23:59N 55°07' E 016°23'511.4
2017-Aug-16 23:30N 55°08' E 016°32'611.2
2017-Aug-16 23:00N 55°10' E 016°42'611.3
2017-Aug-16 22:30N 55°11' E 016°52'611.2
2017-Aug-16 21:58N 55°12' E 017°02'5011.0
2017-Aug-16 17:26N 55°25' E 018°27'410.5
2017-Aug-16 17:00N 55°26' E 018°34'88 6.9
2017-Aug-16 04:16N 55°43' E 021°07'0 0.0
2017-Aug-16 03:59N 55°43' E 021°07'0 0.0
2017-Aug-16 03:29N 55°43' E 021°07'0 0.0
2017-Aug-16 01:06N 55°43' E 021°07'0 0.0
2017-Aug-16 00:51N 55°43' E 021°07'  
2017-Aug-12 01:52N 55°36' E 015°20'411.4
2017-Aug-12 01:30N 55°35' E 015°14'611.4
2017-Aug-12 01:00N 55°32' E 015°05'611.4
2017-Aug-12 00:30N 55°29' E 014°56'611.3
2017-Aug-12 00:00N 55°26' E 014°47'611.4
2017-Aug-11 23:30N 55°23' E 014°39'611.4
2017-Aug-11 23:00N 55°19' E 014°32'611.4
2017-Aug-11 22:30N 55°15' E 014°26'611.2
2017-Aug-11 22:00N 55°10' E 014°19'510.8
2017-Aug-11 21:30N 55°10' E 014°10'611.6
2017-Aug-11 21:00N 55°10' E 013°60'611.6
2017-Aug-11 20:30N 55°11' E 013°49'2611.3
2017-Aug-11 18:11N 55°13' E 013°04'311.2
2017-Aug-11 17:56N 55°13' E 012°59'511.0
2017-Aug-11 17:30N 55°15' E 012°51'611.3
2017-Aug-11 17:00N 55°17' E 012°42'4 9.1
2017-Aug-11 16:30N 55°21' E 012°38'510.9
2017-Aug-11 16:00N 55°26' E 012°40'510.9
2017-Aug-11 15:30N 55°32' E 012°42'4 8.7
2017-Aug-11 15:00N 55°36' E 012°42'1010.5
2017-Aug-11 14:00N 55°46' E 012°41'611.1
2017-Aug-11 13:30N 55°52' E 012°39'611.1
2017-Aug-11 13:00N 55°57' E 012°38'510.7
2017-Aug-11 12:30N 56°03' E 012°38'5 9.9
2017-Aug-11 12:00N 56°06' E 012°32'611.3
2017-Aug-11 11:30N 56°09' E 012°23'7611.0
2017-Aug-11 04:34N 57°19' E 011°29'110.6
2017-Aug-11 04:30N 57°20' E 011°29'510.4
2017-Aug-11 04:00N 57°25' E 011°26'510.3
2017-Aug-11 03:30N 57°29' E 011°21'510.9
2017-Aug-11 03:00N 57°33' E 011°13'610.9
2017-Aug-11 02:30N 57°37' E 011°06'711.6
2017-Aug-11 01:55N 57°41' E 010°57'511.3
2017-Aug-11 01:30N 57°44' E 010°50'510.9
2017-Aug-11 01:00N 57°47' E 010°41'611.1
2017-Aug-11 00:30N 57°47' E 010°30'511.2
2017-Aug-11 00:00N 57°46' E 010°20'611.4
2017-Aug-10 23:30N 57°46' E 010°09'1011.0
2017-Aug-10 22:35N 57°43' E 009°51'111.1
2017-Aug-10 22:30N 57°43' E 009°49'  
Track history (hours):
 
Tides and Currents Weather Stations Pressure Air Temp Water Temp Dewpoint Dewpoint Depression Visibility Wind Speed Wind Dir Waves Ship Positions

Wilson Clyde

Last reported at 2017-Aug-20 17:50 UTC. Time now 2017-Aug-20 19:17 UTC.
Position N 49°46' W 003°28'.

Length 100 m; draft 5.9 m.

Type: Cargo ship. MMSI: 314187000.

Date/timePositionNaut miles runAvg speedWind from/ knotsBaromVisibWave heightAir tempDewpointWater temp
2017-Aug-20 17:50N 49°46' W 003°28'3 8.3
2017-Aug-20 17:30N 49°47' W 003°24'4 8.4
2017-Aug-20 17:00N 49°49' W 003°19'4 8.7
2017-Aug-20 16:30N 49°51' W 003°13'5 9.1
2017-Aug-20 15:58N 49°54' W 003°06'5 9.8
2017-Aug-20 15:30N 49°56' W 003°00'510.4
2017-Aug-20 15:00N 49°58' W 002°53'3513.0
2017-Aug-20 12:16N 50°08' W 001°59'414.2
2017-Aug-20 12:01N 50°09' W 001°54'713.8
2017-Aug-20 11:30N 50°11' W 001°44'613.0
2017-Aug-20 11:00N 50°13' W 001°34'812.1
2017-Aug-20 10:19N 50°14' W 001°21'46 9.0
2017-Aug-20 05:12N 50°27' W 000°12'2 9.8
2017-Aug-20 05:00N 50°28' W 000°09'510.2
2017-Aug-20 04:30N 50°29' W 000°01'510.9
2017-Aug-20 04:00N 50°31' E 000°07'611.2
2017-Aug-20 03:30N 50°32' E 000°15'711.6
2017-Aug-20 02:52N 50°34' E 000°26'411.5
2017-Aug-20 02:30N 50°36' E 000°32'611.4
2017-Aug-20 02:00N 50°40' E 000°39'611.0
2017-Aug-20 01:30N 50°43' E 000°46'510.5
2017-Aug-20 01:00N 50°46' E 000°53'16 9.5
2017-Aug-19 23:20N 50°56' E 001°12'3 8.6
2017-Aug-19 23:00N 50°58' E 001°16'4 7.9
2017-Aug-19 22:28N 51°01' E 001°21'4 7.4
2017-Aug-19 22:00N 51°03' E 001°25'4 7.3
2017-Aug-19 21:29N 51°05' E 001°29'4 7.6
2017-Aug-19 21:00N 51°08' E 001°34'4 8.2
2017-Aug-19 20:30N 51°10' E 001°39'5 9.4
2017-Aug-19 20:00N 51°13' E 001°45'510.3
2017-Aug-19 19:30N 51°18' E 001°49'611.5
2017-Aug-19 19:00N 51°23' E 001°54'612.1
2017-Aug-19 18:30N 51°28' E 001°59'612.3
2017-Aug-19 17:59N 51°32' E 002°06'1012.0
2017-Aug-19 17:07N 51°40' E 002°17'104 9.3
2017-Aug-19 05:56N 53°01' E 004°05'4 9.8
2017-Aug-19 05:29N 53°04' E 004°11'5 9.4
2017-Aug-19 04:59N 53°07' E 004°16'4 9.3
2017-Aug-19 04:30N 53°10' E 004°22'33 8.1
2017-Aug-19 00:25N 53°33' E 005°01'4 9.5
2017-Aug-19 00:00N 53°35' E 005°07'11510.1
2017-Aug-18 12:35N 53°60' E 008°18'212.8
2017-Aug-18 12:27N 53°60' E 008°21'613.4
2017-Aug-18 11:59N 53°58' E 008°31'613.2
2017-Aug-18 11:30N 53°55' E 008°40'612.5
2017-Aug-18 11:00N 53°51' E 008°47'611.8
2017-Aug-18 10:30N 53°51' E 008°57'510.7
2017-Aug-18 10:00N 53°53' E 009°06'2 3.9
2017-Aug-18 09:30N 53°54' E 009°09'1 1.4
2017-Aug-18 09:00N 53°54' E 009°10'4 7.2
2017-Aug-18 08:30N 53°57' E 009°14'4 7.9
2017-Aug-18 08:00N 54°00' E 009°18'4 8.3
2017-Aug-18 07:30N 54°04' E 009°19'53 4.2
2017-Aug-17 18:52N 54°34' E 010°34'410.6
2017-Aug-17 18:30N 54°35' E 010°41'510.3
2017-Aug-17 18:00N 54°36' E 010°49'510.7
2017-Aug-17 17:30N 54°36' E 010°59'611.4
2017-Aug-17 17:00N 54°36' E 011°08'611.8
2017-Aug-17 16:30N 54°34' E 011°18'611.8
2017-Aug-17 16:00N 54°32' E 011°27'611.9
2017-Aug-17 15:30N 54°29' E 011°36'711.7
2017-Aug-17 14:57N 54°27' E 011°47'511.5
2017-Aug-17 14:30N 54°27' E 011°56'811.3
2017-Aug-17 13:47N 54°28' E 012°09'311.0
2017-Aug-17 13:30N 54°31' E 012°11'611.4
2017-Aug-17 13:00N 54°36' E 012°14'611.5
2017-Aug-17 12:30N 54°39' E 012°22'2311.5
2017-Aug-17 10:28N 54°51' E 012°58'511.5
2017-Aug-17 10:00N 54°52' E 013°06'611.5
2017-Aug-17 09:28N 54°54' E 013°17'511.8
2017-Aug-17 09:00N 54°55' E 013°26'611.6
2017-Aug-17 08:30N 54°55' E 013°36'611.3
2017-Aug-17 08:00N 54°55' E 013°46'611.1
2017-Aug-17 07:30N 54°55' E 013°56'611.3
2017-Aug-17 07:00N 54°55' E 014°05'611.5
2017-Aug-17 06:30N 54°55' E 014°15'611.4
2017-Aug-17 06:00N 54°56' E 014°25'611.3
2017-Aug-17 05:30N 54°56' E 014°35'611.3
2017-Aug-17 05:00N 54°56' E 014°45'611.3
2017-Aug-17 04:30N 54°56' E 014°55'611.3
2017-Aug-17 04:00N 54°56' E 015°05'611.3
2017-Aug-17 03:30N 54°57' E 015°14'611.6
2017-Aug-17 03:00N 54°59' E 015°24'611.7
2017-Aug-17 02:31N 55°00' E 015°34'611.6
2017-Aug-17 02:00N 55°01' E 015°44'711.7
2017-Aug-17 01:27N 55°03' E 015°55'511.6
2017-Aug-17 01:00N 55°04' E 016°03'611.5
2017-Aug-17 00:30N 55°05' E 016°13'611.4
2017-Aug-16 23:59N 55°07' E 016°23'511.4
2017-Aug-16 23:30N 55°08' E 016°32'611.2
2017-Aug-16 23:00N 55°10' E 016°42'611.3
2017-Aug-16 22:30N 55°11' E 016°52'611.2
2017-Aug-16 21:58N 55°12' E 017°02'5011.0
2017-Aug-16 17:26N 55°25' E 018°27'410.5
2017-Aug-16 17:00N 55°26' E 018°34'88 6.9
2017-Aug-16 04:16N 55°43' E 021°07'0 0.0
2017-Aug-16 03:59N 55°43' E 021°07'0 0.0
2017-Aug-16 03:29N 55°43' E 021°07'0 0.0
2017-Aug-16 01:06N 55°43' E 021°07'0 0.0
2017-Aug-16 00:51N 55°43' E 021°07'  
2017-Aug-12 01:52N 55°36' E 015°20'411.4
2017-Aug-12 01:30N 55°35' E 015°14'611.4
2017-Aug-12 01:00N 55°32' E 015°05'611.4
2017-Aug-12 00:30N 55°29' E 014°56'611.3
2017-Aug-12 00:00N 55°26' E 014°47'611.4
2017-Aug-11 23:30N 55°23' E 014°39'611.4
2017-Aug-11 23:00N 55°19' E 014°32'611.4
2017-Aug-11 22:30N 55°15' E 014°26'611.2
2017-Aug-11 22:00N 55°10' E 014°19'510.8
2017-Aug-11 21:30N 55°10' E 014°10'611.6
2017-Aug-11 21:00N 55°10' E 013°60'611.6
2017-Aug-11 20:30N 55°11' E 013°49'2611.3
2017-Aug-11 18:11N 55°13' E 013°04'311.2
2017-Aug-11 17:56N 55°13' E 012°59'511.0
2017-Aug-11 17:30N 55°15' E 012°51'611.3
2017-Aug-11 17:00N 55°17' E 012°42'4 9.1
2017-Aug-11 16:30N 55°21' E 012°38'510.9
2017-Aug-11 16:00N 55°26' E 012°40'510.9
2017-Aug-11 15:30N 55°32' E 012°42'4 8.7
2017-Aug-11 15:00N 55°36' E 012°42'1010.5
2017-Aug-11 14:00N 55°46' E 012°41'611.1
2017-Aug-11 13:30N 55°52' E 012°39'611.1
2017-Aug-11 13:00N 55°57' E 012°38'510.7
2017-Aug-11 12:30N 56°03' E 012°38'5 9.9
2017-Aug-11 12:00N 56°06' E 012°32'611.3
2017-Aug-11 11:30N 56°09' E 012°23'7611.0
2017-Aug-11 04:34N 57°19' E 011°29'110.6
2017-Aug-11 04:30N 57°20' E 011°29'510.4
2017-Aug-11 04:00N 57°25' E 011°26'510.3
2017-Aug-11 03:30N 57°29' E 011°21'510.9
2017-Aug-11 03:00N 57°33' E 011°13'610.9
2017-Aug-11 02:30N 57°37' E 011°06'711.6
2017-Aug-11 01:55N 57°41' E 010°57'511.3
2017-Aug-11 01:30N 57°44' E 010°50'510.9
2017-Aug-11 01:00N 57°47' E 010°41'611.1
2017-Aug-11 00:30N 57°47' E 010°30'511.2
2017-Aug-11 00:00N 57°46' E 010°20'611.4
2017-Aug-10 23:30N 57°46' E 010°09'1011.0
2017-Aug-10 22:35N 57°43' E 009°51'111.1
2017-Aug-10 22:30N 57°43' E 009°49'  

Dump ship's entire track history